Map

Track Data

SID SEASON NUMBER BASIN SUBBASIN NAME ISO_TIME NATURE LAT LON WMO_WIND WMO_PRES WMO_AGENCY TRACK_TYPE DIST2LAND LANDFALL IFLAG USA_AGENCY USA_ATCF_ID USA_LAT USA_LON USA_RECORD USA_STATUS USA_WIND USA_PRES USA_SSHS USA_R34_NE USA_R34_SE USA_R34_SW USA_R34_NW USA_R50_NE USA_R50_SE USA_R50_SW USA_R50_NW USA_R64_NE USA_R64_SE USA_R64_SW USA_R64_NW USA_POCI USA_ROCI USA_RMW USA_EYE TOKYO_LAT TOKYO_LON TOKYO_GRADE TOKYO_WIND TOKYO_PRES TOKYO_R50_DIR TOKYO_R50_LONG TOKYO_R50_SHORT TOKYO_R30_DIR TOKYO_R30_LONG TOKYO_R30_SHORT TOKYO_LAND CMA_LAT CMA_LON CMA_CAT CMA_WIND CMA_PRES HKO_LAT HKO_LON HKO_CAT HKO_WIND HKO_PRES NEWDELHI_LAT NEWDELHI_LON NEWDELHI_GRADE NEWDELHI_WIND NEWDELHI_PRES NEWDELHI_CI NEWDELHI_DP NEWDELHI_POCI REUNION_LAT REUNION_LON REUNION_TYPE REUNION_WIND REUNION_PRES REUNION_TNUM REUNION_CI REUNION_RMW REUNION_R34_NE REUNION_R34_SE REUNION_R34_SW REUNION_R34_NW REUNION_R50_NE REUNION_R50_SE REUNION_R50_SW REUNION_R50_NW REUNION_R64_NE REUNION_R64_SE REUNION_R64_SW REUNION_R64_NW BOM_LAT BOM_LON BOM_TYPE BOM_WIND BOM_PRES BOM_TNUM BOM_CI BOM_RMW BOM_R34_NE BOM_R34_SE BOM_R34_SW BOM_R34_NW BOM_R50_NE BOM_R50_SE BOM_R50_SW BOM_R50_NW BOM_R64_NE BOM_R64_SE BOM_R64_SW BOM_R64_NW BOM_ROCI BOM_POCI BOM_EYE BOM_POS_METHOD BOM_PRES_METHOD NADI_LAT NADI_LON NADI_CAT NADI_WIND NADI_PRES WELLINGTON_LAT WELLINGTON_LON WELLINGTON_WIND WELLINGTON_PRES DS824_LAT DS824_LON DS824_STAGE DS824_WIND DS824_PRES TD9636_LAT TD9636_LON TD9636_STAGE TD9636_WIND TD9636_PRES TD9635_LAT TD9635_LON TD9635_WIND TD9635_PRES TD9635_ROCI NEUMANN_LAT NEUMANN_LON NEUMANN_CLASS NEUMANN_WIND NEUMANN_PRES MLC_LAT MLC_LON MLC_CLASS MLC_WIND MLC_PRES USA_GUST BOM_GUST BOM_GUST_PER REUNION_GUST REUNION_GUST_PER USA_SEAHGT USA_SEARAD_NE USA_SEARAD_SE USA_SEARAD_SW USA_SEARAD_NW STORM_SPEED STORM_DIR
1969116S09153 1969 27 SP EA ESTHER 1969-04-25 23:00:00 NR -8.75000 152.750 1005 bom main 291 276 ______O___O___ -1 -8.70000 152.700 1005 -8.80000 152.800 1 30 5 195
1969116S09153 1969 27 SP EA ESTHER 1969-04-26 00:00:00 TS -8.83544 152.725 main 276 248 O_____P__OP_O_ jtwc_sh SH351969 -8.90000 152.700 30 -1 -8.80168 152.662 1004 -8.80000 152.700 TC 20 1005 -8.89007 152.736 1 29 -8.70000 152.900 TC 20 1005 6 203
1969116S09153 1969 27 SP EA ESTHER 1969-04-26 03:00:00 TS -9.11109 152.590 main 248 221 P_____P__PP_P_ SH351969 -9.13752 152.543 30 -1 -9.10600 152.549 1004 -9.10474 152.592 TC 21 1004 -9.16091 152.551 1 28 -8.99751 152.800 TC 22 1004 6 205
1969116S09153 1969 27 SP EA ESTHER 1969-04-26 06:00:00 TS -9.39452 152.464 main 221 198 O_____P__PP_O_ jtwc_sh SH351969 -9.40000 152.400 30 -1 -9.40777 152.444 1003 -9.40758 152.488 TC 22 1003 -9.43415 152.386 1 27 -9.30000 152.700 TC 25 1003 6 201
1969116S09153 1969 27 SP EA ESTHER 1969-04-26 09:00:00 TS -9.68848 152.361 main 198 180 P_____P__PP_P_ SH351969 -9.69999 152.285 27 -1 -9.70513 152.352 1002 -9.70662 152.389 TC 23 1002 -9.71166 152.258 1 25 -9.60750 152.600 TC 25 1002 6 198
1969116S09153 1969 27 SP EA ESTHER 1969-04-26 11:00:00 TS -9.88580 152.302 1002 bom main 180 178 P_____O__PO_P_ SH351969 -9.90308 152.225 25 -1 -9.90000 152.300 1002 -9.90295 152.329 TC 24 1002 -9.90000 152.200 1 25 -9.80571 152.533 TC 25 1002 6 195
1969116S09153 1969 27 SP EA ESTHER 1969-04-26 12:00:00 TS -9.98192 152.276 main 178 164 O_____P__OP_O_ jtwc_sh SH351969 -10.0000 152.200 25 -1 -9.99623 152.278 1002 -10.0000 152.300 TC 25 1002 -9.99531 152.181 1 23 -9.90000 152.500 TC 25 1002 6 194
1969116S09153 1969 27 SP EA ESTHER 1969-04-26 15:00:00 TS -10.2498 152.214 main 164 164 P_____P__PP_P_ SH351969 -10.2500 152.150 20 -1 -10.2799 152.219 1002 -10.2862 152.220 TC 25 1002 -10.2828 152.150 1 20 -10.1500 152.393 TC 25 1002 6 192
1969116S09153 1969 27 SP EA ESTHER 1969-04-26 18:00:00 TS -10.5144 152.154 main 164 153 O_____P__PP_O_ jtwc_sh SH351969 -10.5000 152.100 15 -1 -10.5561 152.158 1002 -10.5649 152.137 TC 25 1002 -10.5653 152.128 1 16 -10.4000 152.300 TC 25 1002 6 193
1969116S09153 1969 27 SP EA ESTHER 1969-04-26 21:00:00 TS -10.8016 152.085 main 154 146 P_____P__PP_P_ SH351969 -10.8075 152.030 12 -1 -10.8249 152.076 1002 -10.8361 152.036 TC 25 1002 -10.8337 152.074 1 12 -10.7000 152.265 TC 25 1002 6 196
1969116S09153 1969 27 SP EA ESTHER 1969-04-26 23:00:00 TS -10.9889 152.015 1002 bom main 148 148 P_____O__PO_P_ SH351969 -11.0088 151.953 10 -1 -11.0000 152.000 1002 -11.0129 151.950 TC 25 1002 -11.0000 152.000 1 10 -10.9031 152.231 TC 25 1002 6 202
1969116S09153 1969 27 SP EA ESTHER 1969-04-27 00:00:00 TS -11.0793 151.970 main 152 142 O_____P__OP_O_ jtwc_sh SH351969 -11.1000 151.900 10 -1 -11.0932 151.976 1002 -11.1000 151.900 TC 25 1002 -11.0829 151.946 1 10 -11.0000 152.200 TC 25 1002 6 212
1969116S09153 1969 27 SP EA ESTHER 1969-04-27 03:00:00 TS -11.3274 151.798 main 143 140 P_____P__PP_P_ SH351969 -11.3150 151.680 10 -1 -11.3699 151.889 1002 -11.3897 151.781 TC 25 1002 -11.3174 151.737 1 10 -11.2575 152.023 TC 25 1002 6 220
1969116S09153 1969 27 SP EA ESTHER 1969-04-27 06:00:00 TS -11.5543 151.570 main 149 142 O_____P__PP_O_ jtwc_sh SH351969 -11.5000 151.400 10 -1 -11.6320 151.736 1002 -11.6676 151.617 TC 25 1002 -11.5262 151.466 1 10 -11.5000 151.800 TC 25 1002 7 226
1969116S09153 1969 27 SP EA ESTHER 1969-04-27 09:00:00 TS -11.7792 151.321 main 149 145 P_____P__PP_P_ SH351969 -11.7148 151.145 10 -1 -11.8662 151.468 1002 -11.9118 151.369 TC 25 1002 -11.7030 151.141 1 10 -11.7648 151.660 TC 25 1002 7 232
1969116S09153 1969 27 SP EA ESTHER 1969-04-27 11:00:00 TS -11.9103 151.102 1002 bom main 152 149 P_____O__PO_P_ SH351969 -11.8446 150.931 10 -1 -12.0000 151.200 1002 -12.0448 151.139 TC 25 1002 -11.8000 150.900 1 10 -11.9279 151.512 TC 25 1002 8 241
1969116S09153 1969 27 SP EA ESTHER 1969-04-27 12:00:00 TS -11.9708 150.960 main 159 149 O_____P__OP_O_ jtwc_sh SH351969 -11.9000 150.800 10 -1 -12.0732 151.017 1002 -12.1000 151.000 TC 25 1002 -11.8519 150.745 1 10 -12.0000 151.400 TC 25 1002 11 253
1969116S09153 1969 27 SP EA ESTHER 1969-04-27 15:00:00 TS -12.1254 150.399 main 156 156 P_____P__PP_P_ SH351969 -12.0303 150.243 10 -1 -12.2492 150.395 1002 -12.2557 150.449 TC 25 1002 -11.9838 150.234 1 10 -12.2028 150.830 TC 25 1002 11 257
1969116S09153 1969 27 SP EA ESTHER 1969-04-27 17:00:00 TS -12.1835 150.014 1002 bom main 169 169 P_____O__PP_P_ SH351969 -12.0835 149.862 10 -1 -12.3000 150.000 1002 -12.3016 150.071 TC 25 1002 -12.0484 149.893 1 10 -12.2840 150.398 TC 25 1002 11 263
1969116S09153 1969 27 SP EA ESTHER 1969-04-27 18:00:00 TS -12.1955 149.842 main 173 173 O_____P__OP_O_ jtwc_sh SH351969 -12.1000 149.700 10 -1 -12.3004 149.820 1002 -12.3000 149.900 TC 25 1002 -12.0727 149.733 1 10 -12.3000 150.200 TC 25 1002 9 271
1969116S09153 1969 27 SP EA ESTHER 1969-04-27 21:00:00 TS -12.1722 149.422 main 187 180 P_____P__PP_P_ SH351969 -12.1373 149.330 10 -1 -12.2096 149.374 1002 -12.1874 149.452 TC 25 1002 -12.1091 149.345 1 10 -12.2525 149.702 TC 25 1002 7 278
1969116S09153 1969 27 SP EA ESTHER 1969-04-27 23:00:00 TS -12.1109 149.258 1002 bom main 180 180 P_____O__PO_P_ SH351969 -12.1223 149.210 10 -1 -12.1000 149.200 1002 -12.0631 149.255 TC 25 1002 -12.1000 149.200 1 10 -12.1579 149.471 TC 25 1002 4 298
1969116S09153 1969 27 SP EA ESTHER 1969-04-28 00:00:00 TS -12.0691 149.225 main 184 159 O_____P__OP_O_ jtwc_sh SH351969 -12.1000 149.200 10 -1 -12.0368 149.150 1002 -12.0000 149.200 TC 25 1002 -12.0777 149.198 1 11 -12.1000 149.400 TC 25 1002 3 13
1969116S09153 1969 27 SP EA ESTHER 1969-04-28 03:00:00 TS -11.9069 149.297 main 159 145 P_____P__PP_P_ SH351969 -11.9650 149.368 15 -1 -11.8204 149.170 1002 -11.8349 149.195 TC 25 1002 -11.9639 149.342 1 14 -11.8923 149.338 TC 25 1002 4 39
1969116S09153 1969 27 SP EA ESTHER 1969-04-28 05:00:00 TS -11.7938 149.456 1002 bom main 141 141 P_____O__PP_P_ SH351969 -11.8522 149.585 18 -1 -11.7000 149.300 1002 -11.7385 149.315 TC 25 1002 -11.8651 149.528 1 17 -11.7547 149.426 TC 25 1002 6 58
1969116S09153 1969 27 SP EA ESTHER 1969-04-28 06:00:00 TS -11.7461 149.554 main 127 116 O_____P__OP_O_ jtwc_sh SH351969 -11.8000 149.700 20 -1 -11.6630 149.388 1001 -11.7000 149.400 TC 25 1002 -11.8136 149.637 1 18 -11.7000 149.500 TC 25 1002 7 71
1969116S09153 1969 27 SP EA ESTHER 1969-04-28 09:00:00 TS -11.6466 149.891 main 105 101 P_____P__PP_P_ SH351969 -11.6776 150.023 22 -1 -11.6074 149.751 1001 -11.6265 149.729 TC 27 1001 -11.6702 149.986 1 22 -11.6202 149.835 TC 25 1001 7 76
1969116S09153 1969 27 SP EA ESTHER 1969-04-28 11:00:00 TS -11.6078 150.119 1001 bom main 101 100 P_____O__PO_P_ SH351969 -11.6193 150.220 24 -1 -11.6000 150.000 1001 -11.6049 149.983 TC 29 1001 -11.6000 150.200 1 25 -11.6032 150.090 TC 25 1001 6 81
1969116S09153 1969 27 SP EA ESTHER 1969-04-28 12:00:00 TS -11.5964 150.205 main 100 100 O_____P__OP_O_ jtwc_sh SH351969 -11.6000 150.300 25 -1 -11.5926 150.078 1001 -11.6000 150.100 TC 30 1001 -11.5857 150.254 1 25 -11.6000 150.200 TC 25 1001 4 84
1969116S09153 1969 27 SP EA ESTHER 1969-04-28 15:00:00 TS -11.5823 150.356 main 100 100 P_____P__PP_P_ SH351969 -11.5774 150.415 27 -1 -11.5911 150.244 1001 -11.5884 150.294 TC 30 1001 -11.5747 150.388 1 26 -11.5849 150.380 TC 25 1001 3 92
1969116S09153 1969 27 SP EA ESTHER 1969-04-28 18:00:00 TS -11.6039 150.464 main 101 101 O_____P__PP_O_ jtwc_sh SH351969 -11.6000 150.500 30 -1 -11.6160 150.356 1001 -11.6051 150.414 TC 30 1001 -11.6023 150.513 1 27 -11.6000 150.500 TC 25 1001 3 104
1969116S09153 1969 27 SP EA ESTHER 1969-04-28 21:00:00 TS -11.6457 150.608 main 103 103 P_____P__PP_P_ SH351969 -11.6350 150.678 30 -1 -11.6613 150.479 1001 -11.6443 150.526 TC 30 1001 -11.6559 150.665 1 29 -11.6424 150.620 TC 25 1001 3 107
1969116S09153 1969 27 SP EA ESTHER 1969-04-28 23:00:00 TS -11.6851 150.734 1001 bom main 116 116 P_____O__PO_P_ SH351969 -11.6750 150.822 30 -1 -11.7000 150.600 1001 -11.6800 150.631 TC 30 1001 -11.7000 150.800 1 30 -11.6807 150.727 TC 25 1001 4 107
1969116S09153 1969 27 SP EA ESTHER 1969-04-29 00:00:00 TS -11.7061 150.810 main 120 120 O_____P__OP_O_ jtwc_sh SH351969 -11.7000 150.900 30 -1 -11.7182 150.684 1000 -11.7000 150.700 TC 30 1001 -11.7182 150.878 1 30 -11.7000 150.800 TC 25 1001 5 106
1969116S09153 1969 27 SP EA ESTHER 1969-04-29 03:00:00 TS -11.7777 151.075 main 141 141 P_____P__PP_P_ SH351969 -11.7999 151.105 30 -1 -11.7839 150.980 1000 -11.7564 150.996 TC 30 1000 -11.7838 151.149 1 30 -11.7425 151.113 TC 27 1000 6 104
1969116S09153 1969 27 SP EA ESTHER 1969-04-29 06:00:00 TS -11.8583 151.416 main 164 164 O_____P__PP_O_ jtwc_sh SH351969 -11.9000 151.400 30 -1 -11.8613 151.344 1000 -11.8272 151.365 TC 30 1000 -11.8612 151.484 1 30 -11.8000 151.500 TC 30 1000 8 102
1969116S09153 1969 27 SP EA ESTHER 1969-04-29 09:00:00 TS -11.9330 151.837 main 188 188 P_____P__PP_P_ SH351969 -11.9500 151.848 30 -1 -11.9444 151.775 1000 -11.9093 151.802 TC 30 1000 -11.9444 151.889 1 30 -11.8998 151.863 TC 30 1000 9 100
1969116S09153 1969 27 SP EA ESTHER 1969-04-29 11:00:00 TS -11.9832 152.164 1000 bom main 226 226 P_____O__PO_P_ SH351969 -11.9802 152.209 30 -1 -12.0000 152.100 1000 -11.9690 152.128 TC 30 1000 -12.0000 152.200 1 30 -11.9696 152.141 TC 30 1000 10 98
1969116S09153 1969 27 SP EA ESTHER 1969-04-29 12:00:00 TS -12.0061 152.339 main 234 234 O_____P__OP_O_ jtwc_sh SH351969 -12.0000 152.400 30 -1 -12.0189 152.265 999 -12.0000 152.300 TC 30 1000 -12.0177 152.367 1 32 -12.0000 152.300 TC 30 1000 11 98
1969116S09153 1969 27 SP EA ESTHER 1969-04-29 15:00:00 TS -12.0788 152.899 main 292 292 P_____P__PP_P_ SH351969 -12.1000 152.985 37 0 -12.0731 152.809 999 -12.0820 152.824 TC 31 999 -12.0677 152.922 1 38 -12.0500 152.870 TC 30 999 12 97
1969116S09153 1969 27 SP EA ESTHER 1969-04-29 18:00:00 TS -12.1559 153.508 main 354 354 O_____P__PP_O_ jtwc_sh SH351969 -12.2000 153.600 45 0 -12.1354 153.411 998 -12.1726 153.405 TC 32 999 -12.1275 153.535 1 44 -12.1000 153.500 TC 30 999 12 97
1969116S09153 1969 27 SP EA ESTHER 1969-04-29 21:00:00 TS -12.2281 154.125 main 411 411 P_____P__PP_P_ SH351969 -12.2349 154.200 50 0 -12.2216 154.055 998 -12.2768 154.034 TC 33 998 -12.2158 154.174 1 50 -12.1848 154.085 TC 32 998 12 98
1969116S09153 1969 27 SP EA ESTHER 1969-04-29 23:00:00 TS -12.2920 154.544 998 bom main 456 456 P_____O__PO_P_ SH351969 -12.2688 154.600 53 0 -12.3000 154.500 998 -12.3565 154.474 TC 34 998 -12.3000 154.600 2 55 -12.2582 154.489 TC 34 998 13 100
1969116S09153 1969 27 SP EA ESTHER 1969-04-30 00:00:00 TS -12.3332 154.755 main 485 485 O_____P__OP_O_ jtwc_sh SH351969 -12.3000 154.800 55 0 -12.3484 154.732 997 -12.4000 154.700 TC 35 998 -12.3510 154.798 2 52 -12.3000 154.700 TC 35 998 13 103
1969116S09153 1969 27 SP EA ESTHER 1969-04-30 03:00:00 TS -12.4915 155.408 main 509 493 P_____P__PP_P_ SH351969 -12.4624 155.400 47 0 -12.5163 155.439 995 -12.5370 155.415 TC 37 996 -12.5357 155.389 2 45 -12.4351 155.408 TC 37 996 13 106
1969116S09153 1969 27 SP EA ESTHER 1969-04-30 06:00:00 TS -12.6934 156.047 994 bom main 499 491 O_____O__OP_O_ jtwc_sh SH351969 -12.7000 156.000 40 0 -12.7000 156.100 994 -12.7000 156.100 TC 40 994 -12.7607 155.984 2 37 -12.6000 156.100 TC 40 994 13 110
1969116S09153 1969 27 SP EA ESTHER 1969-04-30 09:00:00 TS -12.9159 156.625 main 492 477 P_____P__PP_P_ SH351969 -12.9848 156.593 32 -1 -12.8634 156.646 994 -12.8837 156.673 TC 40 994 -13.0167 156.589 2 30 -12.7621 156.658 TC 40 994 12 113
1969116S09153 1969 27 SP EA ESTHER 1969-04-30 11:00:00 TS -13.0868 157.004 994 bom main 479 472 P_____O__PO_P_ SH351969 -13.1946 156.994 27 -1 -13.0000 157.000 994 -13.0241 157.025 TC 40 994 -13.2000 157.000 1 25 -12.9077 157.013 TC 40 994 12 114
1969116S09153 1969 27 SP EA ESTHER 1969-04-30 12:00:00 TS -13.1700 157.201 main 474 458 O_____P__OP_O_ jtwc_sh SH351969 -13.3000 157.200 25 -1 -13.0905 157.197 993 -13.1000 157.200 TC 40 994 -13.2944 157.209 1 26 -13.0000 157.200 TC 40 994 13 116
1969116S09153 1969 27 SP EA ESTHER 1969-04-30 15:00:00 TS -13.4733 157.829 main 468 458 P_____P__PP_P_ SH351969 -13.6054 157.840 27 -1 -13.4288 157.825 993 -13.3687 157.800 TC -13.5863 157.846 1 29 -13.3774 157.835 TC 40 993 14 117
1969116S09153 1969 27 SP EA ESTHER 1969-04-30 18:00:00 TS -13.8067 158.481 main 469 466 O_____P__PP_O_ jtwc_sh SH351969 -13.9000 158.500 30 -1 -13.8291 158.488 992 -13.6835 158.432 TC -13.8879 158.497 1 33 -13.8000 158.500 TC 40 993 14 118
1969116S09153 1969 27 SP EA ESTHER 1969-04-30 21:00:00 TS -14.1546 159.136 main 480 464 ______P__PP_P_ SH351969 -1 -14.2420 159.160 992 -14.0292 159.081 TC -14.1947 159.157 1 37 -14.1724 159.158 TC 42 992 15 119
1969116S09153 1969 27 SP EA ESTHER 1969-04-30 23:00:00 TS -14.3898 159.571 992 bom main 468 463 ______O__PO_P_ SH351969 -1 -14.5000 159.600 992 4 -14.2695 159.517 TC -14.4000 159.600 2 40 -14.3973 159.589 TC 44 992 14 119
1969116S09153 1969 27 SP EA ESTHER 1969-05-01 00:00:00 TS -14.5007 159.785 main 467 462 ______P__P__O_ -1 -14.6112 159.820 992 -14.3909 159.735 TC 2 -14.5000 159.800 TC 45 992 14 117
1969116S09153 1969 27 SP MM ESTHER 1969-05-01 03:00:00 TS -14.8121 160.420 main 472 469 ______P__P__P_ -1 -14.9255 160.476 992 -14.7535 160.378 TC 2 -14.7573 160.408 TC 45 992 14 117
1969116S09153 1969 27 SP MM ESTHER 1969-05-01 06:00:00 TS -15.1035 161.032 main 489 487 ______P__P__O_ -1 -15.2082 161.101 992 -15.1023 160.996 TC 2 -15.0000 161.000 TC 45 992 13 117
1969116S09153 1969 27 SP MM ESTHER 1969-05-01 09:00:00 TS -15.3979 161.629 main 515 491 ______P__P__P_ -1 -15.4559 161.668 992 -15.4226 161.575 TC 2 -15.3151 161.645 TC 45 992 12 117
1969116S09153 1969 27 SP MM ESTHER 1969-05-01 11:00:00 TS -15.5759 161.989 992 bom main 491 480 ______O__P__P_ -1 -15.6000 162.000 992 -15.6132 161.932 TC -15.5146 162.034 TC 45 992 11 117
1969116S09153 1969 27 SP MM ESTHER 1969-05-01 12:00:00 TS -15.6454 162.127 main 480 452 ______P__O__O_ -1 -15.6361 162.080 992 -15.7000 162.100 TC 45 992 -15.6000 162.200 TC 45 992 7 117
1969116S09153 1969 27 SP MM ESTHER 1969-05-01 15:00:00 TS -15.8008 162.444 main 452 421 ______P__P__P_ -1 -15.7052 162.233 992 -15.9250 162.561 TC 43 992 -15.7722 162.538 TC 42 992 6 116
1969116S09153 1969 27 SP MM ESTHER 1969-05-01 18:00:00 TS -15.9314 162.726 main 421 391 ______P__P__O_ -1 -15.7871 162.408 993 -16.1072 162.969 TC 42 993 -15.9000 162.800 TC 40 993 6 114
1969116S09153 1969 27 SP MM ESTHER 1969-05-01 21:00:00 TS -16.0659 163.054 main 382 364 ______P__P__P_ -1 -15.9734 162.809 993 -16.2609 163.343 TC 41 993 -16.0121 163.083 TC 40 993 8 113
1969116S09153 1969 27 SP MM ESTHER 1969-05-01 23:00:00 TS -16.1993 163.371 994 bom main 354 336 ______O__P__P_ -1 -16.2000 163.300 994 -16.3544 163.582 TC 40 993 -16.1212 163.335 TC 40 993 11 114
1969116S09153 1969 27 SP MM ESTHER 1969-05-02 00:00:00 TS -16.2947 163.595 main 336 294 ______P__O__O_ -1 -16.3630 163.664 994 -16.4000 163.700 TC 40 994 -16.2000 163.500 TC 40 994 17 115
1969116S09153 1969 27 SP MM ESTHER 1969-05-02 02:00:00 TS -16.5721 164.190 995 bom main 289 276 ______O_____P_ -1 -16.7000 164.400 995 TC -16.4441 163.979 TC 38 994 19 117
1969116S09153 1969 27 SP MM ESTHER 1969-05-02 03:00:00 TS -16.7155 164.472 main 267 232 ______P_____P_ -1 -16.8452 164.695 995 TC -16.5858 164.249 TC 37 995 15 120
1969116S09153 1969 27 SP MM ESTHER 1969-05-02 06:00:00 TS -17.0732 165.105 main 239 225 ______P_____O_ -1 -17.1708 165.245 996 TC -17.0000 165.000 TC 35 996 11 123
1969116S09153 1969 27 SP MM ESTHER 1969-05-02 09:00:00 TS -17.3293 165.451 main 217 216 ______P_____P_ -1 -17.3854 165.452 998 TC -17.2919 165.451 TC 32 997 7 130
1969116S09153 1969 27 SP MM ESTHER 1969-05-02 11:00:00 TS -17.4565 165.585 999 bom main 221 212 ______O_____P_ -1 -17.5000 165.500 999 TC -17.4348 165.627 TC 30 998 6 126
1969116S09153 1969 27 SP MM ESTHER 1969-05-02 12:00:00 TS -17.5000 165.700 main 212 ____________O_ -1 -17.5000 165.700 TC 30 999 7 111

Digital Typhoon Data and Search

About IBTrACS Database

This database is a web-friendly format of International Best Track Archive for Climate Stewardship (IBTrACS), a global best track data archive curated by NOAA dating back to 1842.

Updated: 2021-11-26